Time;durP1;ratioP1;P1;durP2;ratioP2;P2;SDS_P1;SDS_P2;PMS_P1;PMS_P2;Temp;Humidity;BMP_temperature;BMP_pressure;BME280_temperature;BME280_humidity;BME280_pressure;Samples;Min_cycle;Max_cycle;Signal;HPM_P1;HPM_P2
2023/04/13 00:00:35;;;;;;;0.80;0.80;;;8.00;99.90;;;;;;6088578;23;20196;-72
2023/04/13 00:03:03;;;;;;;1.00;0.80;;;8.00;99.90;;;;;;6090343;23;20220;-73
2023/04/13 00:05:33;;;;;;;0.95;0.70;;;7.90;99.90;;;;;;6088761;23;20190;-72
2023/04/13 00:08:01;;;;;;;1.13;0.80;;;7.90;99.90;;;;;;6086779;23;20217;-72
2023/04/13 00:10:30;;;;;;;1.08;0.90;;;7.80;99.90;;;;;;6089172;23;20217;-72
2023/04/13 00:13:00;;;;;;;1.00;0.90;;;7.70;99.90;;;;;;6091370;23;20228;-71
2023/04/13 00:15:28;;;;;;;2.08;0.80;;;7.60;99.90;;;;;;6087847;23;20197;-71
2023/04/13 00:17:56;;;;;;;0.90;0.80;;;7.60;99.90;;;;;;6089532;23;20210;-72
2023/04/13 00:20:24;;;;;;;0.90;0.70;;;7.60;99.90;;;;;;6088343;23;20193;-72
2023/04/13 00:22:51;;;;;;;1.70;0.73;;;7.60;99.90;;;;;;6086401;23;20276;-72
2023/04/13 00:25:18;;;;;;;0.90;0.70;;;7.60;99.90;;;;;;6089590;23;20189;-71
2023/04/13 00:27:45;;;;;;;0.70;0.60;;;7.50;99.90;;;;;;6089664;23;21078;-72
2023/04/13 00:30:13;;;;;;;0.80;0.65;;;7.50;99.90;;;;;;6088500;23;20195;-72
2023/04/13 00:32:44;;;;;;;1.23;0.98;;;7.50;99.90;;;;;;6087802;23;20302;-72
2023/04/13 00:35:12;;;;;;;1.20;0.80;;;7.50;99.90;;;;;;6088359;23;20193;-72
2023/04/13 00:40:15;;;;;;;3.05;1.45;;;7.60;99.90;;;;;;6086485;23;20826;-62
2023/04/13 00:42:43;;;;;;;2.15;0.75;;;7.60;99.90;;;;;;6088505;23;20200;-62
2023/04/13 00:45:12;;;;;;;1.67;0.80;;;7.60;99.90;;;;;;6082363;23;20262;-62
2023/04/13 00:47:40;;;;;;;3.63;1.10;;;7.80;99.90;;;;;;6070137;23;20262;-62
2023/04/13 00:50:09;;;;;;;2.20;0.70;;;7.80;99.90;;;;;;6075249;23;20223;-63
2023/04/13 00:52:37;;;;;;;0.70;0.70;;;7.80;99.90;;;;;;6061601;23;20301;-62
2023/04/13 00:55:05;;;;;;;1.10;0.80;;;7.80;99.90;;;;;;6053509;23;20719;-62
2023/04/13 00:57:33;;;;;;;1.00;0.50;;;7.90;99.90;;;;;;6058426;23;20214;-62
2023/04/13 01:00:05;;;;;;;0.80;0.70;;;7.80;99.90;;;;;;6059874;23;20277;-63
2023/04/13 01:02:33;;;;;;;0.95;0.60;;;7.80;99.90;;;;;;6060939;23;20192;-62
2023/04/13 01:05:01;;;;;;;0.80;0.70;;;7.80;99.90;;;;;;6066032;23;20195;-62
2023/04/13 01:07:40;;;;;;;0.65;0.65;;;7.80;99.90;;;;;;6060409;23;20210;-62
2023/04/13 01:10:11;;;;;;;1.20;0.90;;;7.80;99.90;;;;;;6062192;23;20192;-62
2023/04/13 01:12:44;;;;;;;1.00;0.90;;;7.70;99.90;;;;;;6057727;23;20214;-62
2023/04/13 01:15:13;;;;;;;0.80;0.70;;;7.70;99.90;;;;;;6058786;23;20285;-62
2023/04/13 01:17:44;;;;;;;1.50;0.88;;;7.60;99.90;;;;;;6056158;23;20211;-62
2023/04/13 01:20:14;;;;;;;1.08;0.70;;;7.60;99.90;;;;;;6070871;23;20637;-62
2023/04/13 01:22:49;;;;;;;0.80;0.70;;;7.60;99.90;;;;;;6078436;23;20561;-62
2023/04/13 01:25:31;;;;;;;0.70;0.70;;;7.50;99.90;;;;;;6060275;23;20644;-62
2023/04/13 01:28:02;;;;;;;0.80;0.60;;;7.50;99.90;;;;;;6054445;23;20224;-62
2023/04/13 01:30:30;;;;;;;1.00;0.90;;;7.40;99.90;;;;;;6058807;23;20231;-62
2023/04/13 01:33:00;;;;;;;0.80;0.65;;;7.30;99.90;;;;;;6069037;23;20208;-62
2023/04/13 01:35:28;;;;;;;0.90;0.68;;;7.30;99.90;;;;;;6060669;23;20471;-62
2023/04/13 01:37:57;;;;;;;1.13;0.70;;;7.20;99.90;;;;;;6057872;23;20538;-63
2023/04/13 01:40:29;;;;;;;0.90;0.77;;;7.10;99.90;;;;;;6059107;23;20194;-62
2023/04/13 01:42:56;;;;;;;1.08;0.60;;;7.10;99.90;;;;;;6056516;23;20193;-62
2023/04/13 01:45:27;;;;;;;1.80;0.70;;;7.00;99.90;;;;;;6067148;23;20216;-62
2023/04/13 01:48:07;;;;;;;1.20;0.70;;;7.00;99.90;;;;;;6063712;23;20288;-62
2023/04/13 01:50:39;;;;;;;1.25;0.70;;;7.00;99.90;;;;;;6086757;23;20199;-63
2023/04/13 01:53:10;;;;;;;1.60;1.10;;;6.90;99.90;;;;;;6061124;23;20222;-62
2023/04/13 01:55:40;;;;;;;0.93;0.70;;;6.90;99.90;;;;;;6059674;23;20193;-62
2023/04/13 01:58:10;;;;;;;0.70;0.57;;;6.80;99.90;;;;;;6057378;23;20227;-62
2023/04/13 02:00:39;;;;;;;1.80;0.80;;;6.80;99.90;;;;;;6057909;23;20201;-62
2023/04/13 02:03:08;;;;;;;1.08;0.60;;;6.80;99.90;;;;;;6074197;23;20204;-62
2023/04/13 02:05:36;;;;;;;1.30;0.70;;;6.80;99.90;;;;;;6060323;23;20292;-62
2023/04/13 02:08:05;;;;;;;1.20;0.90;;;6.80;99.90;;;;;;6065745;23;20193;-63
2023/04/13 02:10:33;;;;;;;2.03;0.80;;;6.90;99.90;;;;;;6052618;23;20564;-62
2023/04/13 02:13:00;;;;;;;1.48;0.80;;;6.90;99.90;;;;;;6057620;23;20220;-62
2023/04/13 02:15:28;;;;;;;1.70;0.85;;;6.90;99.90;;;;;;6065540;23;20288;-62
2023/04/13 02:17:56;;;;;;;1.00;0.70;;;7.00;99.90;;;;;;6059564;23;20200;-62
2023/04/13 02:20:23;;;;;;;1.55;1.02;;;7.00;99.90;;;;;;6060152;23;20676;-62
2023/04/13 02:22:50;;;;;;;0.77;0.70;;;7.00;99.90;;;;;;6061430;23;20752;-62
2023/04/13 02:25:17;;;;;;;1.15;0.70;;;7.00;99.90;;;;;;6056463;23;20203;-62
2023/04/13 02:27:45;;;;;;;1.77;0.90;;;6.90;99.90;;;;;;6072864;23;20554;-62
2023/04/13 02:30:12;;;;;;;1.80;0.70;;;6.90;99.90;;;;;;6060233;23;20620;-62
2023/04/13 02:32:40;;;;;;;0.80;0.80;;;6.90;99.90;;;;;;6059791;23;20541;-62
2023/04/13 02:35:10;;;;;;;1.65;0.98;;;6.90;99.90;;;;;;6060572;23;20645;-62
2023/04/13 02:37:38;;;;;;;1.05;0.90;;;6.90;99.90;;;;;;6055881;23;20254;-62
2023/04/13 02:40:08;;;;;;;1.08;0.75;;;6.90;99.90;;;;;;6062495;23;20228;-62
2023/04/13 02:42:36;;;;;;;0.90;0.80;;;6.90;99.90;;;;;;6038500;23;20196;-63
2023/04/13 02:45:06;;;;;;;1.58;0.80;;;6.90;99.90;;;;;;6072349;23;20620;-63
2023/04/13 02:47:33;;;;;;;0.95;0.60;;;6.80;99.90;;;;;;6061683;23;20214;-62
2023/04/13 02:50:01;;;;;;;2.33;0.90;;;6.80;99.90;;;;;;6060980;23;20284;-65
2023/04/13 02:52:30;;;;;;;1.10;0.80;;;6.80;99.90;;;;;;6060278;23;20192;-62
2023/04/13 02:54:57;;;;;;;2.00;0.88;;;6.80;99.90;;;;;;6078097;23;20185;-62
2023/04/13 02:57:24;;;;;;;0.90;0.90;;;6.80;99.90;;;;;;6079773;23;20708;-62
2023/04/13 02:59:52;;;;;;;0.90;0.60;;;6.70;99.90;;;;;;6065388;23;20197;-62
2023/04/13 03:02:19;;;;;;;0.70;0.70;;;6.70;99.90;;;;;;6060782;23;20267;-62
2023/04/13 03:04:46;;;;;;;2.30;0.80;;;6.60;99.90;;;;;;6060420;23;20334;-62
2023/04/13 03:07:13;;;;;;;0.80;0.70;;;6.50;99.90;;;;;;6056519;23;20292;-62
2023/04/13 03:09:42;;;;;;;0.85;0.80;;;6.50;99.90;;;;;;6057664;23;20197;-62
2023/04/13 03:12:09;;;;;;;1.20;0.90;;;6.40;99.90;;;;;;6058337;23;20275;-62
2023/04/13 03:14:36;;;;;;;1.75;0.90;;;6.30;99.90;;;;;;6074360;23;20613;-62
2023/04/13 03:17:04;;;;;;;0.80;0.70;;;6.30;99.90;;;;;;6039248;23;20245;-62
2023/04/13 03:19:34;;;;;;;0.70;0.60;;;6.30;99.90;;;;;;6059766;23;20189;-62
2023/04/13 03:22:02;;;;;;;0.95;0.75;;;6.20;99.90;;;;;;6061564;23;20192;-62
2023/04/13 03:24:29;;;;;;;1.02;0.90;;;6.20;99.90;;;;;;6058883;23;20192;-62
2023/04/13 03:26:58;;;;;;;2.20;1.13;;;6.20;99.90;;;;;;6059556;23;20208;-62
2023/04/13 03:29:25;;;;;;;1.20;0.80;;;6.20;99.90;;;;;;6061562;23;20243;-62
2023/04/13 03:31:52;;;;;;;1.35;0.93;;;6.20;99.90;;;;;;6068566;23;20194;-62
2023/04/13 03:34:19;;;;;;;1.23;0.70;;;6.20;99.90;;;;;;6058334;23;20332;-62
2023/04/13 03:36:46;;;;;;;1.33;0.90;;;6.20;99.90;;;;;;6057997;23;20212;-63
2023/04/13 03:39:13;;;;;;;2.03;0.80;;;6.20;99.90;;;;;;6069165;23;20271;-62
2023/04/13 03:41:40;;;;;;;1.27;0.85;;;6.20;99.90;;;;;;6076756;23;20204;-62
2023/04/13 03:44:09;;;;;;;1.20;1.00;;;6.20;99.90;;;;;;6061695;23;20189;-62
2023/04/13 03:46:36;;;;;;;1.40;1.00;;;6.20;99.90;;;;;;6059503;23;20214;-62
2023/04/13 03:49:07;;;;;;;1.13;0.90;;;6.20;99.90;;;;;;6056214;23;20193;-62
2023/04/13 03:51:34;;;;;;;1.15;1.00;;;6.20;99.90;;;;;;6079622;23;20708;-62
2023/04/13 03:54:01;;;;;;;2.20;0.80;;;6.30;99.90;;;;;;6060612;23;20224;-62
2023/04/13 03:56:28;;;;;;;1.73;1.27;;;6.40;99.90;;;;;;6058422;23;20295;-62
2023/04/13 03:58:55;;;;;;;1.95;1.05;;;6.40;99.90;;;;;;6080740;23;20279;-62
2023/04/13 04:01:24;;;;;;;1.30;1.20;;;6.40;99.90;;;;;;6060290;23;20618;-62
2023/04/13 04:03:54;;;;;;;3.15;1.10;;;6.50;99.90;;;;;;6058272;23;20739;-62
2023/04/13 04:06:21;;;;;;;1.60;0.80;;;6.50;99.90;;;;;;6061267;23;20232;-62
2023/04/13 04:08:48;;;;;;;2.75;1.55;;;6.60;99.90;;;;;;6072813;23;20629;-62
2023/04/13 04:11:16;;;;;;;0.98;0.80;;;6.60;99.90;;;;;;6070971;23;20192;-62
2023/04/13 04:13:43;;;;;;;3.65;0.90;;;6.60;99.90;;;;;;6067096;23;20675;-62
2023/04/13 04:16:11;;;;;;;1.17;0.80;;;6.60;99.90;;;;;;6056201;23;20305;-62
2023/04/13 04:18:39;;;;;;;1.00;0.90;;;6.60;99.90;;;;;;6074570;23;20293;-62
2023/04/13 04:21:07;;;;;;;1.10;0.90;;;6.60;99.90;;;;;;6059418;23;20194;-62
2023/04/13 04:23:36;;;;;;;1.73;0.90;;;6.60;99.90;;;;;;6059306;23;20196;-62
2023/04/13 04:26:04;;;;;;;1.77;0.80;;;6.70;99.90;;;;;;6045196;23;20379;-62
2023/04/13 04:28:37;;;;;;;1.60;1.08;;;6.70;99.90;;;;;;6051386;23;20185;-63
2023/04/13 04:31:09;;;;;;;1.15;1.05;;;6.70;99.90;;;;;;6063944;23;20277;-62
2023/04/13 04:33:38;;;;;;;0.90;0.80;;;6.70;99.90;;;;;;6059660;23;20238;-62
2023/04/13 04:36:08;;;;;;;1.65;1.00;;;6.70;99.90;;;;;;6059116;23;20213;-62
2023/04/13 04:38:35;;;;;;;1.40;1.23;;;6.70;99.90;;;;;;6062790;23;20304;-62
2023/04/13 04:41:03;;;;;;;1.38;1.00;;;6.70;99.90;;;;;;6053693;23;20605;-63
2023/04/13 04:43:31;;;;;;;1.77;1.30;;;6.70;99.90;;;;;;6059350;23;20203;-62
2023/04/13 04:45:58;;;;;;;1.58;1.10;;;6.70;99.90;;;;;;6059573;23;20247;-63
2023/04/13 04:48:25;;;;;;;1.60;1.10;;;6.70;99.90;;;;;;6063672;23;20245;-63
2023/04/13 04:50:54;;;;;;;3.35;0.90;;;6.70;99.90;;;;;;6068739;23;20197;-63
2023/04/13 04:53:23;;;;;;;1.75;1.00;;;6.70;99.90;;;;;;6061203;23;20206;-63
2023/04/13 04:55:50;;;;;;;2.72;1.23;;;6.80;99.90;;;;;;6060931;23;20206;-63
2023/04/13 04:58:18;;;;;;;1.45;1.00;;;6.80;99.90;;;;;;6079128;23;20219;-63
2023/04/13 05:00:45;;;;;;;1.45;0.90;;;6.80;99.90;;;;;;6065865;23;20656;-63
2023/04/13 05:03:12;;;;;;;1.77;0.95;;;6.90;99.90;;;;;;6043098;23;20278;-63
2023/04/13 05:05:39;;;;;;;2.58;0.80;;;6.90;99.90;;;;;;6054321;23;20701;-63
2023/04/13 05:08:07;;;;;;;1.15;1.00;;;6.90;99.90;;;;;;6049530;23;20191;-63
2023/04/13 05:10:36;;;;;;;1.30;0.95;;;6.90;99.90;;;;;;6057302;23;20193;-64
2023/04/13 05:13:03;;;;;;;1.65;1.00;;;6.90;99.90;;;;;;6048700;23;20252;-63
2023/04/13 05:15:30;;;;;;;2.97;1.30;;;6.90;99.90;;;;;;6053759;23;20271;-63
2023/04/13 05:17:57;;;;;;;2.03;1.15;;;6.90;99.90;;;;;;6059577;23;20649;-63
2023/04/13 05:20:24;;;;;;;1.30;1.00;;;6.90;99.90;;;;;;6058136;23;20537;-63
2023/04/13 05:22:51;;;;;;;2.40;1.10;;;7.00;99.90;;;;;;6048893;23;20221;-63
2023/04/13 05:25:18;;;;;;;1.75;1.15;;;7.00;99.90;;;;;;6057441;23;20686;-63
2023/04/13 05:27:47;;;;;;;2.00;1.08;;;7.00;99.90;;;;;;6059247;23;20540;-63
2023/04/13 05:30:14;;;;;;;1.63;0.93;;;7.10;99.90;;;;;;6058150;23;20209;-63
2023/04/13 05:32:42;;;;;;;2.83;1.23;;;7.10;99.90;;;;;;6052515;23;20668;-63
2023/04/13 05:35:10;;;;;;;2.28;1.10;;;7.10;99.90;;;;;;6050439;23;20733;-63
2023/04/13 05:37:38;;;;;;;2.95;1.00;;;7.10;99.90;;;;;;6058344;23;20205;-61
2023/04/13 05:40:12;;;;;;;3.75;1.65;;;7.10;99.90;;;;;;6059300;23;20198;-63
2023/04/13 05:42:41;;;;;;;4.63;1.30;;;7.10;99.90;;;;;;6059162;23;20199;-62
2023/04/13 05:45:11;;;;;;;3.40;1.20;;;7.20;99.90;;;;;;6058367;23;20217;-62
2023/04/13 05:47:38;;;;;;;3.08;1.00;;;7.20;99.90;;;;;;6057244;23;20586;-62
2023/04/13 05:50:07;;;;;;;2.40;1.10;;;7.20;99.90;;;;;;6056989;23;20423;-63
2023/04/13 05:52:35;;;;;;;3.75;1.50;;;7.20;99.90;;;;;;6052285;23;20630;-63
2023/04/13 05:55:02;;;;;;;4.07;2.03;;;7.20;99.90;;;;;;6048748;23;20569;-62
2023/04/13 05:57:29;;;;;;;2.53;1.10;;;7.20;99.90;;;;;;6052960;23;20193;-61
2023/04/13 05:59:57;;;;;;;4.20;1.48;;;7.20;99.90;;;;;;6054826;23;20181;-63
2023/04/13 06:02:25;;;;;;;2.40;1.23;;;7.20;99.90;;;;;;6058396;23;20189;-64
2023/04/13 06:04:53;;;;;;;3.30;1.35;;;7.20;99.90;;;;;;6056651;23;20640;-64
2023/04/13 06:07:21;;;;;;;1.95;1.20;;;7.20;99.90;;;;;;6057549;23;20269;-79
2023/04/13 06:09:48;;;;;;;6.30;1.60;;;7.20;99.90;;;;;;6054534;23;20193;-72
2023/04/13 06:12:17;;;;;;;2.95;1.13;;;7.30;99.90;;;;;;6058401;23;20261;-73
2023/04/13 06:14:44;;;;;;;1.33;1.00;;;7.30;99.90;;;;;;6058563;23;20224;-73
2023/04/13 06:17:11;;;;;;;1.98;1.05;;;7.30;99.90;;;;;;6059634;23;20292;-63
2023/04/13 06:19:39;;;;;;;1.70;1.08;;;7.30;99.90;;;;;;6059438;23;20582;-62
2023/04/13 06:22:06;;;;;;;4.38;1.17;;;7.30;99.90;;;;;;6053171;23;20282;-65
2023/04/13 06:24:33;;;;;;;2.42;1.40;;;7.30;99.90;;;;;;6068846;23;20198;-66
2023/04/13 06:27:00;;;;;;;3.13;1.50;;;7.30;99.90;;;;;;6050126;23;20213;-66
2023/04/13 06:29:27;;;;;;;2.60;1.80;;;7.30;99.90;;;;;;6056082;23;20213;-67
2023/04/13 06:31:54;;;;;;;3.60;1.23;;;7.40;99.90;;;;;;6056977;23;20641;-66
2023/04/13 06:34:21;;;;;;;3.65;1.42;;;7.50;99.90;;;;;;6054324;23;20218;-65
2023/04/13 06:36:50;;;;;;;3.17;1.35;;;7.50;99.90;;;;;;6059345;23;20565;-66
2023/04/13 06:39:17;;;;;;;3.35;1.67;;;7.60;99.90;;;;;;6059816;23;20248;-66
2023/04/13 06:41:44;;;;;;;2.50;1.10;;;7.50;99.90;;;;;;6056988;23;20205;-66
2023/04/13 06:44:11;;;;;;;5.20;1.42;;;7.40;99.90;;;;;;6056462;23;20216;-66
2023/04/13 06:46:38;;;;;;;3.38;1.33;;;7.40;99.90;;;;;;6048018;23;20240;-66
2023/04/13 06:49:05;;;;;;;3.30;1.50;;;7.50;99.90;;;;;;6055985;23;20186;-68
2023/04/13 06:51:32;;;;;;;2.10;1.13;;;7.60;99.90;;;;;;6062829;23;20247;-63
2023/04/13 06:54:01;;;;;;;5.10;1.65;;;7.70;99.90;;;;;;6059269;23;20287;-63
2023/04/13 06:56:28;;;;;;;3.58;1.40;;;7.80;99.90;;;;;;6042294;23;20212;-64
2023/04/13 06:58:57;;;;;;;4.03;1.60;;;7.90;99.90;;;;;;6057211;23;20270;-63
2023/04/13 07:01:24;;;;;;;4.47;1.45;;;7.90;99.90;;;;;;6052633;23;20183;-63
2023/04/13 07:03:51;;;;;;;6.43;2.20;;;7.90;99.90;;;;;;6045110;23;20191;-63
2023/04/13 07:06:19;;;;;;;2.28;1.10;;;8.00;99.90;;;;;;6051127;23;20326;-65
2023/04/13 07:08:46;;;;;;;4.68;1.20;;;8.00;99.90;;;;;;6047361;23;20193;-63
2023/04/13 07:11:14;;;;;;;2.85;1.20;;;8.00;99.90;;;;;;6040489;23;20254;-64
2023/04/13 07:13:41;;;;;;;2.50;1.00;;;8.00;99.90;;;;;;6051341;23;20266;-63
2023/04/13 07:16:10;;;;;;;3.45;1.42;;;7.90;99.90;;;;;;6045243;23;20225;-64
2023/04/13 07:18:38;;;;;;;3.33;1.30;;;7.90;99.90;;;;;;6048589;23;20191;-65
2023/04/13 07:21:06;;;;;;;2.13;1.15;;;7.90;99.90;;;;;;6058826;23;20191;-64
2023/04/13 07:23:33;;;;;;;5.47;1.20;;;7.90;99.90;;;;;;6042421;23;20667;-63
2023/04/13 07:26:00;;;;;;;3.63;1.70;;;8.00;99.90;;;;;;6043555;23;20218;-63
2023/04/13 07:28:29;;;;;;;1.73;1.30;;;8.10;99.90;;;;;;6033791;23;20197;-63
2023/04/13 07:30:56;;;;;;;5.53;1.50;;;8.10;99.90;;;;;;6036860;23;20233;-64
2023/04/13 07:33:23;;;;;;;3.92;1.42;;;8.10;99.90;;;;;;6042017;23;20185;-64
2023/04/13 07:35:53;;;;;;;2.17;1.00;;;8.20;99.90;;;;;;6054040;23;20255;-64
2023/04/13 07:38:20;;;;;;;5.07;1.50;;;8.30;99.90;;;;;;6047263;23;20626;-64
2023/04/13 07:40:47;;;;;;;6.60;1.60;;;8.30;99.90;;;;;;6056175;23;20197;-64
2023/04/13 07:43:14;;;;;;;2.65;1.20;;;8.40;99.90;;;;;;6054073;23;20264;-64
2023/04/13 07:45:43;;;;;;;3.90;1.27;;;8.50;99.90;;;;;;6047961;23;20290;-63
2023/04/13 07:48:10;;;;;;;3.50;1.20;;;8.60;99.90;;;;;;6057667;23;20203;-63
2023/04/13 07:50:41;;;;;;;2.75;1.17;;;8.60;99.90;;;;;;6050298;23;20185;-63
2023/04/13 07:53:08;;;;;;;2.72;1.00;;;8.70;99.90;;;;;;6056370;23;20195;-64
2023/04/13 07:55:36;;;;;;;3.67;1.20;;;8.80;99.90;;;;;;6043372;23;20246;-63
2023/04/13 07:58:03;;;;;;;3.47;1.45;;;8.80;99.90;;;;;;6039787;23;20239;-64
2023/04/13 08:00:30;;;;;;;3.95;1.30;;;8.90;99.90;;;;;;6033283;23;20183;-64
2023/04/13 08:02:58;;;;;;;4.05;1.33;;;8.90;99.90;;;;;;6047607;23;20197;-64
2023/04/13 08:05:25;;;;;;;2.05;1.30;;;8.80;99.90;;;;;;6044163;23;20237;-64
2023/04/13 08:07:52;;;;;;;3.20;1.20;;;8.80;99.90;;;;;;6048868;23;20187;-64
2023/04/13 08:10:19;;;;;;;4.03;1.40;;;8.80;99.90;;;;;;6037119;23;20185;-63
2023/04/13 08:12:46;;;;;;;2.92;1.42;;;8.70;99.90;;;;;;6052590;23;20263;-64
2023/04/13 08:15:14;;;;;;;2.60;1.27;;;8.70;99.90;;;;;;6054771;23;20710;-63
2023/04/13 08:17:41;;;;;;;5.57;1.50;;;8.70;99.90;;;;;;6048433;23;20176;-64
2023/04/13 08:20:10;;;;;;;4.88;1.55;;;8.60;99.90;;;;;;6050404;23;20283;-63
2023/04/13 08:22:37;;;;;;;4.03;2.30;;;8.60;99.90;;;;;;6051767;23;20195;-64
2023/04/13 08:25:05;;;;;;;4.82;1.95;;;8.60;99.90;;;;;;6054380;23;20292;-63
2023/04/13 08:27:32;;;;;;;6.45;1.52;;;8.50;99.90;;;;;;6053211;23;20205;-64
2023/04/13 08:30:00;;;;;;;3.03;1.33;;;8.50;99.90;;;;;;6047711;23;20577;-63
2023/04/13 08:32:28;;;;;;;3.53;1.80;;;8.30;99.90;;;;;;6053908;23;20651;-63
2023/04/13 08:34:55;;;;;;;3.67;2.47;;;8.40;99.90;;;;;;6038873;23;20255;-63
2023/04/13 08:37:25;;;;;;;3.17;1.80;;;8.40;99.90;;;;;;6059278;23;20194;-63
2023/04/13 08:39:58;;;;;;;3.22;1.60;;;8.40;99.90;;;;;;6054186;23;20561;-64
2023/04/13 08:42:26;;;;;;;3.38;1.30;;;8.40;99.90;;;;;;6043110;23;20191;-64
2023/04/13 08:44:57;;;;;;;5.10;1.60;;;8.40;99.90;;;;;;6058309;23;20219;-64
2023/04/13 08:47:26;;;;;;;3.40;1.40;;;8.50;99.90;;;;;;6042303;23;20181;-64
2023/04/13 08:49:56;;;;;;;3.92;1.60;;;8.50;99.90;;;;;;6059385;23;20196;-64
2023/04/13 08:52:25;;;;;;;5.05;1.63;;;8.50;99.90;;;;;;6045726;23;20202;-63
2023/04/13 08:54:54;;;;;;;3.53;1.40;;;8.50;99.90;;;;;;6046974;23;20279;-63
2023/04/13 08:57:21;;;;;;;3.90;1.00;;;8.50;99.90;;;;;;6042956;23;20185;-64
2023/04/13 08:59:51;;;;;;;2.97;1.20;;;8.50;99.90;;;;;;6038090;23;20226;-64
2023/04/13 09:02:23;;;;;;;3.63;1.30;;;8.60;99.90;;;;;;6053566;23;20193;-63
2023/04/13 09:04:53;;;;;;;2.13;1.20;;;8.60;99.90;;;;;;6026135;23;20269;-63
2023/04/13 09:07:26;;;;;;;4.50;1.67;;;8.60;99.90;;;;;;6037853;23;20214;-64
2023/04/13 09:09:57;;;;;;;2.22;1.10;;;8.70;99.90;;;;;;6039544;23;20245;-63
2023/04/13 09:12:24;;;;;;;3.42;1.08;;;8.80;99.90;;;;;;6054841;23;20354;-65
2023/04/13 09:14:52;;;;;;;3.83;2.97;;;8.90;99.90;;;;;;6043012;23;20248;-64
2023/04/13 09:17:25;;;;;;;3.95;1.60;;;8.90;99.90;;;;;;6027811;23;20196;-64
2023/04/13 09:19:52;;;;;;;3.10;1.40;;;9.10;99.90;;;;;;6053644;23;20203;-64
2023/04/13 09:22:20;;;;;;;3.05;2.03;;;9.20;99.90;;;;;;6030655;23;20269;-64
2023/04/13 09:24:48;;;;;;;2.70;2.13;;;9.30;99.90;;;;;;6048307;23;20212;-63
2023/04/13 09:27:20;;;;;;;3.35;1.40;;;9.40;99.90;;;;;;6063133;23;20258;-64
2023/04/13 09:29:52;;;;;;;4.97;1.30;;;9.40;99.90;;;;;;6056734;23;20180;-63
2023/04/13 09:32:21;;;;;;;3.05;1.80;;;9.40;99.90;;;;;;6057922;23;20649;-63
2023/04/13 09:34:58;;;;;;;5.13;1.60;;;9.40;99.90;;;;;;6042831;23;20680;-63
2023/04/13 09:37:27;;;;;;;3.25;1.33;;;9.40;99.90;;;;;;6053097;23;20189;-63
2023/04/13 09:39:54;;;;;;;4.28;1.40;;;9.60;99.90;;;;;;6035288;23;20207;-64
2023/04/13 09:42:23;;;;;;;2.40;1.40;;;9.50;99.90;;;;;;6051873;23;20271;-63
2023/04/13 09:44:57;;;;;;;2.92;1.38;;;9.50;99.90;;;;;;6043632;23;20215;-63
2023/04/13 09:47:25;;;;;;;4.60;1.40;;;9.50;99.90;;;;;;6049260;23;20274;-64
2023/04/13 09:49:53;;;;;;;1.55;1.00;;;9.50;99.90;;;;;;6046168;23;20313;-63
2023/04/13 09:52:20;;;;;;;3.38;1.20;;;9.50;99.90;;;;;;6059664;23;20196;-63
2023/04/13 09:54:50;;;;;;;4.82;1.75;;;9.40;99.90;;;;;;6057676;23;20216;-63
2023/04/13 09:57:24;;;;;;;3.85;1.60;;;9.40;99.90;;;;;;6058983;23;20242;-63
2023/04/13 09:59:53;;;;;;;3.53;1.40;;;9.30;99.90;;;;;;6047275;23;20192;-63
2023/04/13 10:02:21;;;;;;;3.40;1.10;;;9.20;99.90;;;;;;6058046;23;20264;-63
2023/04/13 10:04:48;;;;;;;4.68;1.33;;;9.20;99.90;;;;;;6069504;23;20210;-63
2023/04/13 10:07:15;;;;;;;2.67;1.30;;;9.20;99.90;;;;;;6057923;23;20195;-63
2023/04/13 10:09:43;;;;;;;2.55;1.13;;;9.10;99.90;;;;;;6055849;23;20188;-63
2023/04/13 10:12:12;;;;;;;5.35;2.08;;;9.10;99.90;;;;;;6054944;23;20199;-63
2023/04/13 10:14:43;;;;;;;2.17;1.48;;;9.20;99.90;;;;;;6053068;23;20684;-62
2023/04/13 10:17:36;;;;;;;3.92;1.67;;;9.10;99.90;;;;;;6054443;23;20222;-61
2023/04/13 10:20:12;;;;;;;6.20;1.73;;;9.10;99.90;;;;;;6050959;23;20286;-64
2023/04/13 10:22:42;;;;;;;3.45;1.42;;;9.10;99.90;;;;;;6054131;23;20235;-67
2023/04/13 10:25:13;;;;;;;3.78;1.60;;;9.20;99.90;;;;;;6039328;23;20220;-70
2023/04/13 10:27:41;;;;;;;2.83;1.33;;;9.30;99.90;;;;;;6052574;23;20239;-66
2023/04/13 10:30:18;;;;;;;4.13;1.30;;;9.40;99.90;;;;;;6055207;23;20709;-65
2023/04/13 10:32:45;;;;;;;4.00;1.45;;;9.40;99.90;;;;;;6061373;23;20224;-68
2023/04/13 10:35:14;;;;;;;3.88;1.55;;;9.50;99.90;;;;;;6061333;23;20204;-67
2023/04/13 10:37:44;;;;;;;3.20;1.20;;;9.60;99.90;;;;;;6055026;23;20714;-68
2023/04/13 10:40:13;;;;;;;4.25;1.80;;;9.70;99.90;;;;;;6052237;23;20223;-65
2023/04/13 10:42:42;;;;;;;6.72;1.77;;;9.80;99.90;;;;;;6059441;23;20234;-65
2023/04/13 10:45:19;;;;;;;4.65;1.70;;;9.80;99.90;;;;;;6057723;23;20243;-65
2023/04/13 10:47:47;;;;;;;6.20;1.85;;;9.90;99.90;;;;;;6044882;23;20545;-65
2023/04/13 10:50:18;;;;;;;2.60;1.20;;;9.90;99.90;;;;;;6057514;23;20267;-64
2023/04/13 10:52:59;;;;;;;3.90;1.85;;;10.00;99.90;;;;;;6054411;23;20200;-64
2023/04/13 10:55:27;;;;;;;5.78;2.10;;;10.00;99.90;;;;;;6054171;23;20200;-64
2023/04/13 10:57:55;;;;;;;3.33;1.20;;;10.00;99.90;;;;;;6063157;23;20191;-64
2023/04/13 11:00:24;;;;;;;2.42;1.08;;;10.00;99.90;;;;;;6055288;23;20727;-64
2023/04/13 11:02:55;;;;;;;2.78;1.23;;;10.00;99.90;;;;;;6057298;23;20212;-64
2023/04/13 11:05:23;;;;;;;3.38;1.27;;;10.00;99.90;;;;;;6052423;23;20209;-64
2023/04/13 11:07:51;;;;;;;2.97;1.40;;;10.00;99.90;;;;;;6042509;23;20188;-64
2023/04/13 11:10:24;;;;;;;3.65;1.55;;;10.00;99.90;;;;;;6048118;23;20188;-64
2023/04/13 11:12:52;;;;;;;2.25;1.33;;;10.00;99.90;;;;;;6051542;23;20843;-64
2023/04/13 11:15:21;;;;;;;4.95;2.00;;;10.10;99.90;;;;;;6054363;23;20256;-64
2023/04/13 11:17:57;;;;;;;4.13;1.60;;;10.20;99.90;;;;;;6054882;23;20228;-64
2023/04/13 11:20:33;;;;;;;3.22;1.58;;;10.30;99.90;;;;;;6055918;23;20684;-64
2023/04/13 11:23:02;;;;;;;6.28;2.00;;;10.50;99.90;;;;;;6051093;23;20751;-64
2023/04/13 11:25:30;;;;;;;3.30;1.33;;;10.60;99.90;;;;;;6060681;23;20644;-63
2023/04/13 11:27:58;;;;;;;2.83;1.45;;;10.60;99.90;;;;;;6056039;23;20282;-64
2023/04/13 11:30:26;;;;;;;3.05;1.40;;;10.80;99.90;;;;;;6054374;23;20212;-64
2023/04/13 11:32:57;;;;;;;3.35;1.52;;;11.00;99.90;;;;;;6056604;23;20189;-64
2023/04/13 11:35:24;;;;;;;2.73;1.00;;;11.40;99.90;;;;;;6060591;23;20236;-64
2023/04/13 11:37:53;;;;;;;1.90;0.90;;;12.10;99.90;;;;;;6047993;23;20437;-64
2023/04/13 11:40:23;;;;;;;1.87;0.90;;;12.60;99.90;;;;;;6055788;23;20943;-64
2023/04/13 11:42:52;;;;;;;1.97;0.90;;;13.00;99.90;;;;;;6050978;23;21001;-63
2023/04/13 11:45:21;;;;;;;1.63;1.00;;;13.30;99.90;;;;;;6051243;23;20457;-64
2023/04/13 11:47:50;;;;;;;1.53;0.90;;;13.40;99.90;;;;;;6059760;23;20477;-64
2023/04/13 11:50:19;;;;;;;1.50;0.60;;;13.30;99.90;;;;;;6058775;23;20519;-64
2023/04/13 11:52:47;;;;;;;1.33;0.90;;;13.20;99.90;;;;;;6045413;23;20449;-64
2023/04/13 11:55:16;;;;;;;2.07;0.70;;;12.90;99.90;;;;;;6054754;23;20472;-63
2023/04/13 11:57:43;;;;;;;2.43;0.80;;;12.80;99.90;;;;;;6047647;23;20498;-64
2023/04/13 12:00:17;;;;;;;1.27;1.00;;;13.00;99.90;;;;;;6050016;23;20858;-64
2023/04/13 12:02:45;;;;;;;1.40;0.83;;;13.30;99.90;;;;;;6047264;23;20449;-63
2023/04/13 12:05:23;;;;;;;1.30;1.00;;;13.60;99.90;;;;;;6044405;23;20779;-64
2023/04/13 12:07:53;;;;;;;1.87;0.93;;;13.70;99.90;;;;;;6043511;23;20487;-64
2023/04/13 12:10:22;;;;;;;2.20;1.00;;;13.60;99.90;;;;;;6045232;23;20507;-63
2023/04/13 12:12:57;;;;;;;1.73;0.90;;;13.50;99.90;;;;;;6046735;23;20444;-64
2023/04/13 12:15:26;;;;;;;1.23;0.90;;;13.40;99.90;;;;;;6035106;23;20482;-64
2023/04/13 12:17:54;;;;;;;2.03;1.00;;;13.50;99.90;;;;;;6058170;23;20474;-64
2023/04/13 12:20:23;;;;;;;2.10;1.00;;;13.60;99.90;;;;;;6056709;23;20480;-63
2023/04/13 12:22:51;;;;;;;2.00;1.00;;;13.60;99.90;;;;;;6027057;23;20526;-63
2023/04/13 12:25:20;;;;;;;2.90;1.10;;;13.50;99.90;;;;;;6032536;23;20486;-64
2023/04/13 12:27:49;;;;;;;3.07;1.20;;;13.60;99.90;;;;;;6053783;23;20432;-63
2023/04/13 12:30:17;;;;;;;3.60;1.27;;;13.70;99.90;;;;;;6046370;23;20446;-63
2023/04/13 12:32:45;;;;;;;2.87;1.30;;;13.40;99.90;;;;;;6026074;23;20964;-63
2023/04/13 12:35:13;;;;;;;2.33;1.00;;;13.30;99.90;;;;;;6036575;23;20774;-63
2023/04/13 12:37:42;;;;;;;4.33;1.20;;;13.20;99.90;;;;;;6040808;23;20826;-63
2023/04/13 12:40:11;;;;;;;2.70;1.10;;;13.30;99.90;;;;;;6046975;23;20473;-63
2023/04/13 12:42:39;;;;;;;2.10;1.10;;;13.40;99.90;;;;;;6047322;23;20483;-64
2023/04/13 12:45:07;;;;;;;1.87;0.93;;;13.20;99.90;;;;;;6038566;23;20538;-63
2023/04/13 12:47:34;;;;;;;1.23;0.87;;;13.30;99.90;;;;;;6049163;23;20445;-64
2023/04/13 12:50:03;;;;;;;2.00;1.13;;;13.40;99.90;;;;;;6043014;23;20433;-64
2023/04/13 12:52:31;;;;;;;2.20;1.00;;;13.50;99.90;;;;;;6045749;23;20545;-64
2023/04/13 12:55:00;;;;;;;2.50;1.23;;;13.60;99.90;;;;;;6055963;23;20466;-64
2023/04/13 12:57:28;;;;;;;4.30;1.40;;;13.60;99.90;;;;;;6049939;23;20472;-63
2023/04/13 12:59:56;;;;;;;3.60;1.70;;;13.60;99.90;;;;;;6052573;23;20470;-63
2023/04/13 13:02:24;;;;;;;2.37;1.20;;;13.60;99.90;;;;;;6050630;23;20457;-63
2023/04/13 13:04:54;;;;;;;4.20;1.40;;;13.60;99.90;;;;;;6038192;23;20550;-64